Time;durP1;ratioP1;P1;durP2;ratioP2;P2;SDS_P1;SDS_P2;PMS_P1;PMS_P2;Temp;Humidity;BMP_temperature;BMP_pressure;BME280_temperature;BME280_humidity;BME280_pressure;Samples;Min_cycle;Max_cycle;Signal;HPM_P1;HPM_P2
2023/03/12 00:01:50;;;;;;;68.00;48.40;;;;;;;20.31;72.44;99014.66;4922393;29;20066;-61
2023/03/12 00:04:27;;;;;;;55.30;40.30;;;;;;;20.59;72.64;99011.00;4926294;29;20066;-61
2023/03/12 00:07:15;;;;;;;70.65;48.80;;;;;;;20.46;72.15;99005.97;4925706;29;20047;-62
2023/03/12 00:09:57;;;;;;;68.55;48.13;;;;;;;20.35;72.26;99017.66;4924728;29;20090;-62
2023/03/12 00:12:46;;;;;;;62.55;41.53;;;;;;;20.48;72.76;99020.81;4926210;29;20058;-61
2023/03/12 00:15:29;;;;;;;66.03;46.58;;;;;;;20.41;71.94;99020.16;4925651;29;20063;-62
2023/03/12 00:18:18;;;;;;;63.40;45.83;;;;;;;20.21;72.91;99019.88;4925371;29;20047;-61
2023/03/12 00:21:01;;;;;;;64.32;45.00;;;;;;;20.17;73.03;99021.41;4926280;29;20060;-61
2023/03/12 00:23:58;;;;;;;60.95;41.75;;;;;;;20.26;72.89;99032.56;4931036;28;20523;-61
2023/03/12 00:26:47;;;;;;;70.13;46.20;;;;;;;20.17;73.08;99030.31;4924554;29;20047;-61
2023/03/12 00:29:29;;;;;;;65.32;45.05;;;;;;;20.09;73.41;99040.66;4908985;29;20773;-62
2023/03/12 00:32:19;;;;;;;75.68;46.42;;;;;;;20.04;73.72;99037.91;4914220;29;20058;-62
2023/03/12 00:35:01;;;;;;;60.67;42.97;;;;;;;20.06;73.64;99039.25;4924039;29;20051;-61
2023/03/12 00:37:56;;;;;;;63.35;45.00;;;;;;;20.07;73.54;99045.47;4925462;29;20064;-62
2023/03/12 00:40:32;;;;;;;62.90;44.20;;;;;;;19.99;73.61;99044.00;4925117;29;20091;-62
2023/03/12 00:43:21;;;;;;;67.13;45.22;;;;;;;19.97;74.09;99053.34;4906465;29;20051;-62
2023/03/12 00:46:10;;;;;;;69.30;44.78;;;;;;;19.93;74.46;99058.41;4908460;29;20048;-62
2023/03/12 00:48:54;;;;;;;66.80;46.85;;;;;;;19.93;73.92;99055.72;4908748;29;20070;-62
2023/03/12 00:51:43;;;;;;;66.35;45.88;;;;;;;19.93;74.23;99065.66;4923564;29;20119;-62
2023/03/12 00:54:25;;;;;;;66.50;47.03;;;;;;;19.86;74.41;99065.84;4925685;29;20494;-62
2023/03/12 00:57:14;;;;;;;68.97;46.67;;;;;;;19.85;74.34;99071.44;4907334;29;20839;-62
2023/03/12 00:59:56;;;;;;;65.85;46.78;;;;;;;19.92;73.94;99072.09;4908662;29;20058;-62
2023/03/12 01:02:46;;;;;;;63.72;46.75;;;;;;;19.92;73.98;99080.97;4925859;29;20388;-63
2023/03/12 01:05:28;;;;;;;66.95;47.25;;;;;;;19.86;73.24;99079.28;4928066;29;20043;-62
2023/03/12 01:08:18;;;;;;;60.55;45.28;;;;;;;19.93;73.73;99089.84;4922405;29;20055;-61
2023/03/12 01:11:01;;;;;;;68.97;46.17;;;;;;;19.75;74.11;99080.16;4913836;29;20062;-62
2023/03/12 01:13:50;;;;;;;66.28;45.22;;;;;;;19.86;74.16;99087.34;4915595;29;20051;-61
2023/03/12 01:16:33;;;;;;;62.53;44.40;;;;;;;19.94;73.04;99097.69;4911615;29;20655;-62
2023/03/12 01:19:21;;;;;;;69.75;44.90;;;;;;;19.82;73.53;99088.88;4915818;29;20060;-62
2023/03/12 01:22:03;;;;;;;56.60;41.83;;;;;;;19.88;74.02;99100.53;4896749;29;20527;-62
2023/03/12 01:24:58;;;;;;;60.22;41.15;;;;;;;20.02;73.57;99101.84;4927758;28;20043;-62
2023/03/12 01:27:34;;;;;;;54.92;40.35;;;;;;;20.44;72.07;99099.59;4902099;29;20082;-62
2023/03/12 01:30:29;;;;;;;70.10;46.00;;;;;;;20.31;71.60;99116.91;4910748;29;20043;-62
2023/03/12 01:33:05;;;;;;;68.43;43.60;;;;;;;20.29;71.54;99110.91;4925821;29;20708;-62
2023/03/12 01:35:54;;;;;;;61.03;44.33;;;;;;;20.20;72.77;99115.06;4926132;29;20051;-62
2023/03/12 01:38:43;;;;;;;59.78;44.35;;;;;;;20.07;73.47;99112.69;4898045;29;20500;-62
2023/03/12 01:41:28;;;;;;;64.85;45.50;;;;;;;19.94;72.96;99110.31;4915256;29;20056;-62
2023/03/12 01:44:20;;;;;;;55.15;39.50;;;;;;;20.62;72.35;99115.47;4924530;29;20483;-62
2023/03/12 01:47:03;;;;;;;61.45;43.45;;;;;;;20.50;70.97;99120.94;4922383;28;20062;-62
2023/03/12 01:49:55;;;;;;;64.25;44.03;;;;;;;20.47;71.80;99124.13;4910384;29;20051;-62
2023/03/12 01:52:39;;;;;;;56.97;40.95;;;;;;;20.56;71.25;99135.28;4912729;29;20051;-62
2023/03/12 01:55:27;;;;;;;62.28;42.13;;;;;;;20.46;70.83;99118.97;4897990;29;20055;-62
2023/03/12 01:58:23;;;;;;;54.03;39.65;;;;;;;21.08;70.21;99133.06;4901894;29;20058;-62
2023/03/12 02:00:59;;;;;;;56.60;41.45;;;;;;;21.32;68.07;99128.28;4920894;29;20078;-62
2023/03/12 02:03:59;;;;;;;55.67;39.72;;;;;;;21.06;69.50;99140.59;4919613;29;20052;-62
2023/03/12 02:07:03;;;;;;;59.40;38.72;;;;;;;21.28;68.95;99132.53;4901697;29;20055;-61
2023/03/12 02:09:51;;;;;;;58.67;36.15;;;;;;;21.39;68.07;99132.41;4906522;29;20079;-62
2023/03/12 02:12:33;;;;;;;57.70;37.13;;;;;;;21.51;67.04;99145.72;4907768;29;20440;-61
2023/03/12 02:15:22;;;;;;;60.13;35.42;;;;;;;21.48;66.83;99143.53;4916864;29;20144;-61
2023/03/12 02:18:06;;;;;;;50.50;34.75;;;;;;;21.44;66.86;99153.19;4917663;29;20166;-62
2023/03/12 02:21:10;;;;;;;55.10;35.83;;;;;;;21.50;67.74;99157.59;4905503;29;20147;-61
2023/03/12 02:24:07;;;;;;;48.15;34.22;;;;;;;21.76;66.11;99162.19;4927131;28;20082;-61
2023/03/12 02:26:57;;;;;;;57.90;34.05;;;;;;;21.95;64.89;99158.09;4902646;29;20044;-62
2023/03/12 02:29:50;;;;;;;52.90;34.95;;;;;;;22.88;62.21;99158.59;4922752;29;20134;-62
2023/03/12 02:32:37;;;;;;;50.33;34.13;;;;;;;24.27;58.45;99163.16;4912180;29;20058;-63
2023/03/12 02:35:25;;;;;;;50.55;34.50;;;;;;;24.50;57.98;99167.25;4922398;29;20581;-62
2023/03/12 02:38:28;;;;;;;52.17;35.78;;;;;;;23.96;57.60;99173.13;4924342;29;20055;-61
2023/03/12 02:41:23;;;;;;;60.80;38.63;;;;;;;23.71;57.47;99176.59;4907154;29;20107;-61
2023/03/12 02:44:10;;;;;;;66.03;40.75;;;;;;;24.33;57.59;99177.53;4922139;29;20092;-62
2023/03/12 02:47:01;;;;;;;55.33;37.10;;;;;;;25.58;54.91;99174.91;4912925;29;20051;-61
2023/03/12 02:49:43;;;;;;;65.53;38.53;;;;;;;25.96;54.43;99184.19;4920300;29;20060;-62
2023/03/12 02:52:35;;;;;;;59.25;36.75;;;;;;;26.58;52.49;99187.00;4906503;29;20135;-62
2023/03/12 02:55:16;;;;;;;50.00;33.58;;;;;;;26.57;52.31;99182.66;4904550;29;20048;-62
2023/03/12 02:58:05;;;;;;;51.95;31.60;;;;;;;27.02;48.36;99183.34;4912258;29;20055;-62
2023/03/12 03:00:48;;;;;;;43.08;30.40;;;;;;;27.22;49.35;99188.56;4904500;29;20051;-62
2023/03/12 03:03:36;;;;;;;46.95;30.13;;;;;;;28.20;47.18;99187.88;4903139;29;20054;-61
2023/03/12 03:06:32;;;;;;;55.20;29.85;;;;;;;28.35;46.86;99190.38;4905521;29;20051;-62
2023/03/12 03:09:08;;;;;;;42.42;29.45;;;;;;;27.42;48.21;99198.41;4903470;29;20143;-62
2023/03/12 03:11:57;;;;;;;48.60;30.20;;;;;;;27.71;48.41;99201.88;4904842;29;20050;-62
2023/03/12 03:14:40;;;;;;;;;;;;;;;27.15;48.59;99205.25;4910790;29;20067;-62
2023/03/12 03:17:30;;;;;;;59.63;32.60;;;;;;;26.23;50.55;99211.72;4907593;29;19978;-61
2023/03/12 03:20:21;;;;;;;50.63;32.40;;;;;;;26.50;50.12;99214.78;4920160;29;20048;-61
2023/03/12 03:23:04;;;;;;;54.55;33.15;;;;;;;25.99;50.89;99224.31;4909535;29;20142;-61
2023/03/12 03:26:01;;;;;;;51.88;34.00;;;;;;;25.62;52.12;99227.50;4903068;29;20048;-62
2023/03/12 03:28:38;;;;;;;59.35;33.95;;;;;;;25.64;52.60;99226.13;4920980;29;20152;-61
2023/03/12 03:31:27;;;;;;;60.53;35.58;;;;;;;25.61;51.98;99229.41;4900499;29;20384;-63
2023/03/12 03:34:15;;;;;;;61.08;34.58;;;;;;;25.60;52.13;99233.19;4926306;29;20055;-62
2023/03/12 03:37:11;;;;;;;52.90;34.63;;;;;;;26.08;51.83;99239.75;4915349;29;20106;-61
2023/03/12 03:39:47;;;;;;;59.30;30.95;;;;;;;25.76;51.75;99244.78;4899466;29;20683;-62
2023/03/12 03:42:43;;;;;;;49.90;31.20;;;;;;;25.59;51.57;99239.72;4903500;29;20075;-61
2023/03/12 03:45:18;;;;;;;46.75;28.15;;;;;;;25.65;51.63;99246.75;4922385;29;20056;-62
2023/03/12 03:48:13;;;;;;;46.72;25.35;;;;;;;25.64;52.94;99245.13;4918569;29;20056;-62
2023/03/12 03:50:49;;;;;;;42.53;27.30;;;;;;;25.58;52.39;99251.63;4902541;29;20134;-61
2023/03/12 03:53:48;;;;;;;43.30;25.55;;;;;;;25.72;52.59;99247.25;4909637;29;20676;-62
2023/03/12 03:56:24;;;;;;;45.08;27.85;;;;;;;26.06;51.62;99258.25;4917467;29;20130;-62
2023/03/12 03:59:14;;;;;;;47.47;28.83;;;;;;;26.44;51.59;99253.13;4927679;29;20487;-62
2023/03/12 04:02:04;;;;;;;50.28;28.42;;;;;;;25.97;50.47;99254.47;4916402;29;20155;-62
2023/03/12 04:04:47;;;;;;;;;;;;;;;25.89;50.07;99258.56;4928957;29;20047;-61
2023/03/12 04:07:36;;;;;;;50.67;25.60;;;;;;;25.72;50.59;99268.97;4910348;29;20046;-62
2023/03/12 04:10:28;;;;;;;47.40;25.70;;;;;;;25.84;50.07;99266.75;4912387;29;20066;-62
2023/03/12 04:13:17;;;;;;;44.63;25.90;;;;;;;26.11;49.98;99268.25;4917243;29;20467;-62
2023/03/12 04:15:59;;;;;;;41.60;24.10;;;;;;;26.48;47.88;99274.03;4894459;29;20142;-61
2023/03/12 04:18:49;;;;;;;46.00;23.30;;;;;;;26.86;47.65;99268.88;4928520;29;20071;-62
2023/03/12 04:21:38;;;;;;;35.58;21.35;;;;;;;26.88;47.60;99269.41;4916711;29;20071;-62
2023/03/12 04:24:26;;;;;;;38.03;20.83;;;;;;;27.04;48.15;99268.19;4930119;28;20058;-61
2023/03/12 04:27:21;;;;;;;33.80;19.42;;;;;;;26.91;47.17;99269.63;4924068;29;20048;-62
2023/03/12 04:29:57;;;;;;;34.88;18.50;;;;;;;27.10;45.99;99273.28;4931810;28;20058;-62
2023/03/12 04:32:46;;;;;;;36.25;19.65;;;;;;;27.98;45.95;99270.13;4928532;29;20144;-62
2023/03/12 04:35:28;;;;;;;32.70;18.95;;;;;;;27.72;44.01;99277.00;4910975;29;20142;-63
2023/03/12 04:38:24;;;;;;;34.80;18.25;;;;;;;29.00;43.56;99270.28;4920047;29;20460;-63
2023/03/12 04:41:10;;;;;;;34.72;19.05;;;;;;;29.27;41.80;99272.25;4911747;29;20058;-62
2023/03/12 04:44:04;;;;;;;37.53;17.83;;;;;;;29.82;42.46;99277.78;4935198;29;20048;-63
2023/03/12 04:46:48;;;;;;;32.85;18.42;;;;;;;29.94;41.45;99274.53;4936364;28;20047;-62
2023/03/12 04:49:38;;;;;;;26.90;16.92;;;;;;;29.04;40.83;99273.19;4919286;29;20083;-62
2023/03/12 04:52:20;;;;;;;34.13;17.17;;;;;;;29.12;40.60;99269.78;4917189;29;20648;-63
2023/03/12 04:55:10;;;;;;;24.88;15.77;;;;;;;28.87;42.30;99267.50;4926936;29;20086;-63
2023/03/12 04:57:52;;;;;;;26.17;14.43;;;;;;;29.91;41.29;99266.97;4918262;29;20056;-62
2023/03/12 05:00:42;;;;;;;35.60;17.77;;;;;;;29.91;41.64;99262.31;4907886;29;20040;-63
2023/03/12 05:03:30;;;;;;;27.90;15.48;;;;;;;29.29;41.34;99263.75;4902733;29;20056;-63
2023/03/12 05:06:22;;;;;;;26.70;15.98;;;;;;;29.60;40.09;99266.75;4927717;29;20119;-63
2023/03/12 05:09:10;;;;;;;28.98;15.82;;;;;;;29.23;39.96;99264.97;4927772;29;20140;-63
2023/03/12 05:11:52;;;;;;;34.10;17.02;;;;;;;29.93;40.40;99262.00;4927107;29;20466;-63
2023/03/12 05:14:42;;;;;;;39.35;16.52;;;;;;;30.44;40.74;99256.22;4907566;29;20651;-62
2023/03/12 05:17:24;;;;;;;31.17;17.87;;;;;;;30.37;39.56;99251.16;4899964;29;20060;-62
2023/03/12 05:20:16;;;;;;;28.80;17.38;;;;;;;29.87;40.14;99258.56;4911709;29;20050;-62
2023/03/12 05:22:58;;;;;;;34.30;17.73;;;;;;;29.63;39.35;99255.22;4924757;29;20048;-61
2023/03/12 05:25:53;;;;;;;34.13;17.48;;;;;;;30.52;40.04;99239.91;4929809;28;20039;-61
2023/03/12 05:28:29;;;;;;;29.30;18.25;;;;;;;30.46;37.53;99243.06;4910941;29;20067;-61
2023/03/12 05:31:20;;;;;;;35.25;18.30;;;;;;;30.81;38.85;99238.63;4923028;29;20088;-62
2023/03/12 05:34:02;;;;;;;27.98;17.92;;;;;;;31.27;40.10;99241.03;4919266;29;20063;-63
2023/03/12 05:36:52;;;;;;;48.03;20.83;;;;;;;31.10;37.46;99237.09;4910724;29;20043;-63
2023/03/12 05:39:45;;;;;;;39.47;18.42;;;;;;;31.02;36.96;99235.13;4931337;28;20061;-63
2023/03/12 05:42:42;;;;;;;;;;;;;;;31.37;39.04;99238.84;4915867;29;20067;-62
2023/03/12 05:45:18;;;;;;;40.70;20.88;;;;;;;31.65;38.35;99233.94;4910225;29;19938;-63
2023/03/12 05:48:08;;;;;;;40.25;21.52;;;;;;;31.10;38.21;99236.28;4928463;28;20496;-63
2023/03/12 05:51:00;;;;;;;35.80;21.30;;;;;;;31.01;39.06;99246.38;4933607;28;20373;-62
2023/03/12 05:53:45;;;;;;;30.30;18.92;;;;;;;31.38;37.19;99243.16;4914781;29;20062;-62
2023/03/12 05:56:49;;;;;;;43.50;24.00;;;;;;;30.48;37.15;99241.66;4896253;29;20066;-65
2023/03/12 05:59:34;;;;;;;43.58;21.00;;;;;;;30.15;37.58;99241.00;4914593;29;20055;-66
2023/03/12 06:02:23;;;;;;;47.55;22.35;;;;;;;30.06;37.50;99240.13;4910206;29;20064;-64
2023/03/12 06:05:14;;;;;;;44.67;23.42;;;;;;;29.77;38.07;99231.44;4927516;28;20081;-64
2023/03/12 06:07:58;;;;;;;40.88;22.58;;;;;;;30.23;39.30;99234.81;4919845;29;20047;-64
2023/03/12 06:10:55;;;;;;;45.10;22.48;;;;;;;30.68;38.38;99232.13;4919804;29;20076;-65
2023/03/12 06:13:32;;;;;;;35.85;20.27;;;;;;;30.96;37.25;99230.06;4915538;29;20048;-66
2023/03/12 06:16:24;;;;;;;35.47;20.75;;;;;;;30.99;34.46;99226.69;4935168;29;20075;-65
2023/03/12 06:19:14;;;;;;;36.87;21.13;;;;;;;30.95;36.33;99223.78;4915790;29;20054;-65
2023/03/12 06:22:03;;;;;;;38.20;19.27;;;;;;;31.21;34.39;99222.00;4914928;29;20064;-64
2023/03/12 06:24:52;;;;;;;26.73;16.40;;;;;;;31.07;38.14;99223.25;4932668;28;20070;-65
2023/03/12 06:27:34;;;;;;;35.90;16.95;;;;;;;31.24;37.59;99222.50;4934273;29;20075;-62
2023/03/12 06:30:23;;;;;;;38.88;18.98;;;;;;;31.17;36.57;99215.53;4944116;29;20063;-64
2023/03/12 06:33:07;;;;;;;31.67;18.02;;;;;;;30.89;37.57;99207.81;4935619;28;20052;-63
2023/03/12 06:36:06;;;;;;;40.08;22.60;;;;;;;30.56;34.70;99207.28;4920281;29;20138;-65
2023/03/12 06:38:48;;;;;;;42.75;20.80;;;;;;;30.99;38.76;99207.53;4930205;29;20535;-64
2023/03/12 06:41:37;;;;;;;32.60;18.42;;;;;;;31.09;37.28;99201.81;4933012;29;20040;-64
2023/03/12 06:44:19;;;;;;;36.97;19.05;;;;;;;31.03;37.04;99192.13;4934585;28;20060;-63
2023/03/12 06:47:08;;;;;;;35.10;18.17;;;;;;;31.18;37.04;99197.19;4929399;29;20058;-65
2023/03/12 06:49:50;;;;;;;35.17;18.08;;;;;;;31.36;37.45;99200.81;4915901;29;20079;-63
2023/03/12 06:52:39;;;;;;;27.38;16.70;;;;;;;31.37;34.34;99191.47;4919546;29;20048;-64
2023/03/12 06:55:21;;;;;;;41.65;18.33;;;;;;;31.35;36.27;99182.75;4916151;29;20084;-65
2023/03/12 06:58:10;;;;;;;31.42;16.80;;;;;;;31.26;36.90;99179.19;4911883;29;20052;-65
2023/03/12 07:00:53;;;;;;;33.22;16.65;;;;;;;31.31;34.95;99176.31;4926729;29;20059;-64
2023/03/12 07:03:42;;;;;;;24.23;14.50;;;;;;;31.09;32.24;99172.53;4908184;29;20055;-63
2023/03/12 07:06:25;;;;;;;28.67;15.88;;;;;;;31.22;35.91;99168.06;4916513;29;20055;-65
2023/03/12 07:09:13;;;;;;;22.73;15.00;;;;;;;31.28;34.71;99175.03;4929702;29;20048;-64
2023/03/12 07:11:55;;;;;;;26.90;15.20;;;;;;;30.90;36.95;99163.72;4932650;29;20047;-66
2023/03/12 07:14:44;;;;;;;30.52;15.00;;;;;;;30.88;38.14;99160.50;4934565;29;20043;-64
2023/03/12 07:17:26;;;;;;;28.58;16.25;;;;;;;30.88;34.42;99163.22;4938404;29;20051;-65
2023/03/12 07:20:16;;;;;;;26.63;15.18;;;;;;;30.68;32.63;99153.63;4933883;29;20039;-64
2023/03/12 07:22:59;;;;;;;24.20;13.95;;;;;;;30.66;33.90;99153.16;4934378;28;20055;-67
2023/03/12 07:25:55;;;;;;;24.85;13.38;;;;;;;30.48;32.99;99145.97;4930736;28;20122;-67
2023/03/12 07:28:31;;;;;;;26.38;14.77;;;;;;;30.40;34.09;99141.22;4941892;28;20634;-66
2023/03/12 07:31:26;;;;;;;25.40;15.63;;;;;;;30.32;35.75;99139.22;4939486;28;20091;-66
2023/03/12 07:34:04;;;;;;;32.47;15.05;;;;;;;30.46;36.74;99133.69;4932761;28;20066;-66
2023/03/12 07:36:59;;;;;;;27.40;15.38;;;;;;;30.69;36.67;99138.84;4926572;29;20052;-66
2023/03/12 07:39:35;;;;;;;25.13;14.90;;;;;;;30.80;34.93;99124.91;4912467;29;20135;-66
2023/03/12 07:42:24;;;;;;;23.65;14.13;;;;;;;30.83;34.46;99116.06;4912901;29;20056;-63
2023/03/12 07:45:07;;;;;;;30.55;18.63;;;;;;;30.88;36.66;99113.19;4911778;29;20056;-62
2023/03/12 07:48:01;;;;;;;27.83;15.60;;;;;;;30.60;33.13;99118.03;4908795;29;20059;-66
2023/03/12 07:50:37;;;;;;;34.17;17.13;;;;;;;30.74;36.50;99107.81;4921030;29;20804;-67
2023/03/12 07:53:33;;;;;;;29.77;17.63;;;;;;;30.65;35.83;99104.22;4920612;29;20051;-66
2023/03/12 07:56:09;;;;;;;32.95;16.75;;;;;;;30.60;36.38;99091.50;4920633;29;20080;-66
2023/03/12 07:58:57;;;;;;;24.90;15.23;;;;;;;30.47;32.64;99081.47;4925464;29;20130;-66
2023/03/12 08:01:39;;;;;;;31.05;19.35;;;;;;;30.46;36.63;99089.97;4922925;29;20055;-66
2023/03/12 08:04:34;;;;;;;34.42;19.83;;;;;;;30.42;37.30;99091.69;4917822;29;20138;-65
2023/03/12 08:07:10;;;;;;;23.08;14.20;;;;;;;30.26;31.44;99080.34;4920916;29;20087;-65
2023/03/12 08:10:11;;;;;;;21.60;13.70;;;;;;;30.03;32.35;99076.00;4920959;29;20059;-62
2023/03/12 08:12:47;;;;;;;24.85;13.77;;;;;;;30.10;31.37;99084.56;4921392;29;20040;-66
2023/03/12 08:15:36;;;;;;;28.42;13.50;;;;;;;30.26;32.62;99083.06;4918201;29;20479;-63
2023/03/12 08:18:27;;;;;;;26.02;13.18;;;;;;;30.56;33.96;99067.81;4912349;29;20392;-64
2023/03/12 08:21:08;;;;;;;27.38;14.23;;;;;;;30.58;32.72;99068.34;4916640;29;20135;-65
2023/03/12 08:23:57;;;;;;;27.50;14.70;;;;;;;30.60;35.62;99063.34;4918507;29;20043;-64
2023/03/12 08:26:54;;;;;;;28.17;14.77;;;;;;;30.44;34.55;99045.72;4915944;29;20766;-65
2023/03/12 08:29:32;;;;;;;27.15;15.57;;;;;;;30.37;34.88;99039.88;4916966;29;20059;-64
2023/03/12 08:32:20;;;;;;;22.52;14.20;;;;;;;30.03;33.58;99029.56;4920345;29;20044;-65
2023/03/12 08:35:04;;;;;;;25.77;15.50;;;;;;;30.12;37.70;99024.97;4925564;29;20162;-64
2023/03/12 08:38:00;;;;;;;30.45;15.00;;;;;;;30.03;35.63;99027.63;4923075;29;20090;-65
2023/03/12 08:40:36;;;;;;;28.77;16.45;;;;;;;29.98;38.18;99024.22;4918173;29;20556;-65
2023/03/12 08:43:33;;;;;;;26.77;14.65;;;;;;;30.08;36.52;99027.50;4920516;29;20166;-66
2023/03/12 08:46:09;;;;;;;27.33;15.07;;;;;;;30.25;37.96;99018.59;4921562;29;20052;-66
2023/03/12 08:49:04;;;;;;;28.02;16.13;;;;;;;30.46;36.34;99007.94;4912906;29;20388;-67
2023/03/12 08:51:40;;;;;;;29.45;17.05;;;;;;;30.42;37.69;99015.13;4927975;29;20055;-67
2023/03/12 08:54:34;;;;;;;28.40;16.80;;;;;;;30.32;35.53;99014.28;4926845;29;20134;-67
2023/03/12 08:57:24;;;;;;;30.52;17.27;;;;;;;30.37;36.54;99002.41;4927555;29;20056;-67
2023/03/12 09:00:16;;;;;;;27.70;18.90;;;;;;;30.28;37.77;98993.38;4928124;29;20047;-67
2023/03/12 09:02:58;;;;;;;26.65;16.75;;;;;;;30.15;35.16;98986.88;4928210;29;20056;-67
2023/03/12 09:05:48;;;;;;;42.58;24.70;;;;;;;30.06;37.17;98983.28;4915005;29;20495;-68
2023/03/12 09:08:32;;;;;;;40.58;20.90;;;;;;;30.10;37.36;98980.72;4918243;29;20054;-67
2023/03/12 09:11:21;;;;;;;62.50;30.88;;;;;;;30.07;38.43;98978.63;4912760;29;20699;-64
2023/03/12 09:14:03;;;;;;;34.63;22.13;;;;;;;30.10;36.62;98975.25;4921832;29;20051;-65
2023/03/12 09:17:12;;;;;;;48.78;25.50;;;;;;;30.14;37.58;98966.13;4920068;29;20544;-64
2023/03/12 09:19:57;;;;;;;64.20;39.00;;;;;;;30.09;38.78;98963.56;4919240;29;20063;-67
2023/03/12 09:22:47;;;;;;;31.58;19.92;;;;;;;30.10;37.03;98958.88;4922460;29;20043;-63
2023/03/12 09:25:44;;;;;;;48.60;28.77;;;;;;;30.13;38.62;98955.53;4926961;29;20074;-67
2023/03/12 09:28:32;;;;;;;57.45;29.90;;;;;;;30.21;40.45;98949.31;4919578;29;20969;-63
2023/03/12 09:31:14;;;;;;;52.28;29.35;;;;;;;30.26;41.09;98933.56;4916880;29;20048;-63
2023/03/12 09:34:10;;;;;;;48.22;25.85;;;;;;;30.26;38.82;98927.31;4920265;29;20051;-63
2023/03/12 09:36:46;;;;;;;45.08;27.33;;;;;;;30.26;39.94;98930.84;4899151;29;20071;-67
2023/03/12 09:39:41;;;;;;;;;;;;;;;30.05;40.41;98931.72;4577280;29;10001612;-67
2023/03/12 09:42:26;;;;;;;50.88;25.23;;;;;;;29.96;41.04;98926.22;4916844;29;19927;-65
2023/03/12 09:45:33;;;;;;;46.83;25.55;;;;;;;30.00;41.47;98927.19;4910275;29;20048;-67
2023/03/12 09:48:36;;;;;;;42.63;25.67;;;;;;;29.84;42.02;98920.47;4916126;29;20052;-65
2023/03/12 09:51:34;;;;;;;58.22;25.30;;;;;;;29.61;41.49;98924.38;4918111;29;20063;-61
2023/03/12 09:54:43;;;;;;;46.30;25.50;;;;;;;29.60;41.96;98915.38;4919013;29;20063;-65
2023/03/12 09:57:39;;;;;;;45.22;25.08;;;;;;;29.48;41.92;98911.56;4918398;29;20138;-65
2023/03/12 10:00:19;;;;;;;47.13;26.20;;;;;;;29.28;43.05;98910.94;4909214;29;20055;-64
2023/03/12 10:03:35;;;;;;;51.92;26.55;;;;;;;29.43;43.41;98902.41;4901207;29;20044;-67
2023/03/12 10:06:16;;;;;;;41.50;24.90;;;;;;;29.47;42.95;98902.59;4901033;29;20427;-63
2023/03/12 10:09:26;;;;;;;42.78;23.92;;;;;;;29.35;43.83;98908.59;4914933;29;20170;-64
2023/03/12 10:12:49;;;;;;;43.65;25.83;;;;;;;29.16;42.68;98898.97;4914924;29;20062;-62
2023/03/12 10:15:57;;;;;;;40.55;23.48;;;;;;;29.20;43.58;98899.97;4872637;29;20081;-64
2023/03/12 10:18:55;;;;;;;36.33;20.75;;;;;;;29.23;43.43;98899.34;4913051;29;20623;-65
2023/03/12 10:22:13;;;;;;;35.33;20.67;;;;;;;29.21;43.94;98899.63;4916132;29;20506;-64
2023/03/12 10:25:12;;;;;;;37.72;21.25;;;;;;;29.22;43.11;98895.81;4919021;29;20052;-62
2023/03/12 10:28:25;;;;;;;34.60;20.63;;;;;;;29.13;43.15;98899.56;4901649;29;20140;-63
2023/03/12 10:31:12;;;;;;;41.80;21.00;;;;;;;29.09;43.82;98899.38;4903864;29;20055;-65
2023/03/12 10:34:22;;;;;;;31.05;18.88;;;;;;;29.11;43.84;98891.72;4901982;29;20059;-64
2023/03/12 10:37:11;;;;;;;31.75;19.95;;;;;;;29.01;43.70;98897.41;4896938;29;20059;-63
2023/03/12 10:40:01;;;;;;;30.65;18.95;;;;;;;28.83;43.75;98899.16;4901640;29;20048;-64
2023/03/12 10:42:45;;;;;;;34.03;19.85;;;;;;;28.72;44.00;98888.81;4903203;29;20128;-64
2023/03/12 10:46:05;;;;;;;31.23;18.67;;;;;;;28.68;43.36;98895.97;4907111;29;20938;-64
2023/03/12 10:48:42;;;;;;;27.20;18.20;;;;;;;28.65;44.17;98891.09;4905414;29;20106;-63
2023/03/12 10:51:37;;;;;;;29.13;18.05;;;;;;;28.64;43.20;98889.47;4906928;29;20480;-63
2023/03/12 10:54:22;;;;;;;29.58;18.30;;;;;;;28.65;43.52;98880.19;4906400;29;20056;-63
2023/03/12 10:57:14;;;;;;;41.53;19.75;;;;;;;28.62;43.13;98894.44;4908615;29;20099;-63
2023/03/12 10:59:56;;;;;;;26.77;17.75;;;;;;;28.62;44.12;98891.72;4905735;29;20187;-64
2023/03/12 11:02:54;;;;;;;37.20;19.95;;;;;;;28.50;43.80;98884.84;4908336;29;20139;-65
2023/03/12 11:05:36;;;;;;;35.70;20.35;;;;;;;28.50;43.79;98890.31;4908049;29;20088;-64
2023/03/12 11:08:41;;;;;;;34.70;20.08;;;;;;;28.44;43.56;98883.38;4907281;29;21257;-64
2023/03/12 11:11:31;;;;;;;36.33;19.27;;;;;;;28.45;43.20;98879.53;4907111;29;20060;-64
2023/03/12 11:14:29;;;;;;;39.83;22.17;;;;;;;28.39;43.42;98879.94;4907548;29;20052;-64
2023/03/12 11:17:28;;;;;;;40.85;19.33;;;;;;;28.36;44.09;98873.19;4907040;29;20047;-64
2023/03/12 11:20:29;;;;;;;29.80;17.90;;;;;;;28.31;44.57;98875.22;4906837;29;20091;-64
2023/03/12 11:23:24;;;;;;;31.00;17.35;;;;;;;28.23;45.12;98871.28;4906471;29;20064;-64
2023/03/12 11:26:19;;;;;;;35.65;20.38;;;;;;;28.09;45.16;98881.34;4905587;29;20059;-62
2023/03/12 11:29:22;;;;;;;36.90;20.55;;;;;;;28.01;43.88;98869.25;4918951;29;20051;-63
2023/03/12 11:32:15;;;;;;;39.60;21.05;;;;;;;27.96;44.95;98861.16;4907359;29;20052;-65
2023/03/12 11:34:57;;;;;;;35.80;18.48;;;;;;;27.89;44.92;98865.38;4907239;29;20398;-65
2023/03/12 11:38:04;;;;;;;31.80;18.90;;;;;;;27.86;44.58;98857.81;4908172;29;20052;-64
2023/03/12 11:41:01;;;;;;;29.98;19.40;;;;;;;27.80;44.36;98862.53;4907341;29;20408;-64
2023/03/12 11:44:05;;;;;;;34.75;18.55;;;;;;;27.74;44.34;98857.50;4909213;29;20056;-64
2023/03/12 11:47:25;;;;;;;33.20;19.63;;;;;;;27.68;45.94;98862.25;4912490;29;20051;-64
2023/03/12 11:50:31;;;;;;;32.85;18.92;;;;;;;27.64;46.55;98858.50;4907941;29;20055;-65
2023/03/12 11:53:29;;;;;;;35.13;21.55;;;;;;;27.60;46.68;98857.50;4907204;29;20055;-64
2023/03/12 11:56:26;;;;;;;30.20;18.48;;;;;;;27.56;47.41;98862.72;4907574;29;20154;-64
2023/03/12 11:59:38;;;;;;;42.00;21.63;;;;;;;27.50;47.13;98858.47;4907043;29;20409;-64
2023/03/12 12:02:38;;;;;;;35.70;20.38;;;;;;;27.44;47.53;98856.91;4890320;29;20147;-63
2023/03/12 12:05:49;;;;;;;33.83;19.95;;;;;;;27.41;47.70;98854.78;4900706;29;20812;-64
2023/03/12 12:09:13;;;;;;;27.33;17.75;;;;;;;27.34;48.07;98857.09;4905797;29;20051;-64
2023/03/12 12:12:27;;;;;;;28.25;18.58;;;;;;;27.26;48.04;98852.34;4902615;29;20138;-64
2023/03/12 12:15:55;;;;;;;37.15;18.38;;;;;;;27.25;48.57;98856.97;4532313;29;9999725;-66
2023/03/12 12:18:53;;;;;;;33.63;18.88;;;;;;;27.18;47.86;98855.72;4903656;29;20055;-66
2023/03/12 12:22:03;;;;;;;30.08;18.65;;;;;;;27.16;48.03;98858.75;4901375;29;20036;-65
2023/03/12 12:25:21;;;;;;;30.45;18.63;;;;;;;27.12;47.53;98851.50;4903312;29;20130;-64
2023/03/12 12:29:04;;;;;;;27.55;17.90;;;;;;;27.07;48.95;98857.81;4904318;29;20052;-64
2023/03/12 12:31:58;;;;;;;30.95;18.33;;;;;;;27.00;47.69;98857.38;4903422;29;20146;-63
2023/03/12 12:35:22;;;;;;;33.83;19.05;;;;;;;26.98;48.77;98864.22;4904943;29;20075;-62
2023/03/12 12:38:29;;;;;;;28.95;17.40;;;;;;;26.96;47.48;98867.22;4904138;29;20143;-65
2023/03/12 12:41:26;;;;;;;32.33;17.60;;;;;;;26.92;48.37;98870.81;4888856;29;20052;-65
2023/03/12 12:44:20;;;;;;;30.33;18.27;;;;;;;26.92;48.85;98870.81;4900233;29;20044;-65
2023/03/12 12:47:12;;;;;;;28.35;18.48;;;;;;;26.89;48.66;98876.84;4903722;29;20063;-65
2023/03/12 12:50:02;;;;;;;31.40;17.65;;;;;;;26.80;48.92;98877.50;4903030;29;20071;-65
2023/03/12 12:52:44;;;;;;;31.00;17.33;;;;;;;26.75;49.33;98874.84;4906627;29;20052;-65
2023/03/12 12:55:59;;;;;;;33.80;19.80;;;;;;;26.64;49.36;98881.50;4903532;29;20059;-65
2023/03/12 12:58:48;;;;;;;38.30;18.70;;;;;;;26.59;50.34;98878.88;4905603;29;20071;-65
2023/03/12 13:01:38;;;;;;;42.83;20.10;;;;;;;26.53;50.43;98881.94;4900785;29;20143;-65
2023/03/12 13:04:32;;;;;;;30.90;18.13;;;;;;;26.50;50.43;98890.69;4903500;29;20052;-65
2023/03/12 13:07:21;;;;;;;29.20;17.17;;;;;;;26.49;50.16;98892.59;4901909;29;20076;-64